sensor_id;sensor_type;location;lat;lon;timestamp;P1;durP1;ratioP1;P2;durP2;ratioP2
20173;SDS011;10246;50.620;7.232;2023-02-28T00:00:47;2.30;;;2.10;;
20173;SDS011;10246;50.620;7.232;2023-02-28T00:03:14;2.50;;;2.07;;
20173;SDS011;10246;50.620;7.232;2023-02-28T00:05:41;2.20;;;1.87;;
20173;SDS011;10246;50.620;7.232;2023-02-28T00:08:12;3.53;;;1.90;;
20173;SDS011;10246;50.620;7.232;2023-02-28T00:10:39;2.87;;;1.80;;
20173;SDS011;10246;50.620;7.232;2023-02-28T00:13:06;2.40;;;1.90;;
20173;SDS011;10246;50.620;7.232;2023-02-28T00:15:33;3.50;;;1.97;;
20173;SDS011;10246;50.620;7.232;2023-02-28T00:18:00;3.30;;;1.97;;
20173;SDS011;10246;50.620;7.232;2023-02-28T00:20:28;2.90;;;2.13;;
20173;SDS011;10246;50.620;7.232;2023-02-28T00:22:55;1.70;;;1.60;;
20173;SDS011;10246;50.620;7.232;2023-02-28T00:25:24;6.23;;;2.10;;
20173;SDS011;10246;50.620;7.232;2023-02-28T00:27:51;2.70;;;1.93;;
20173;SDS011;10246;50.620;7.232;2023-02-28T00:30:19;3.03;;;2.13;;
20173;SDS011;10246;50.620;7.232;2023-02-28T00:32:46;2.50;;;1.83;;
20173;SDS011;10246;50.620;7.232;2023-02-28T00:35:13;2.10;;;1.87;;
20173;SDS011;10246;50.620;7.232;2023-02-28T00:37:40;4.57;;;1.93;;
20173;SDS011;10246;50.620;7.232;2023-02-28T00:40:10;3.07;;;1.80;;
20173;SDS011;10246;50.620;7.232;2023-02-28T00:42:39;3.57;;;2.00;;
20173;SDS011;10246;50.620;7.232;2023-02-28T00:45:06;2.40;;;2.00;;
20173;SDS011;10246;50.620;7.232;2023-02-28T00:47:33;3.47;;;2.00;;
20173;SDS011;10246;50.620;7.232;2023-02-28T00:50:00;2.13;;;1.80;;
20173;SDS011;10246;50.620;7.232;2023-02-28T00:52:27;3.47;;;1.90;;
20173;SDS011;10246;50.620;7.232;2023-02-28T00:54:54;2.03;;;1.60;;
20173;SDS011;10246;50.620;7.232;2023-02-28T00:57:21;2.53;;;1.93;;
20173;SDS011;10246;50.620;7.232;2023-02-28T00:59:49;2.97;;;2.00;;
20173;SDS011;10246;50.620;7.232;2023-02-28T01:02:16;3.10;;;2.07;;
20173;SDS011;10246;50.620;7.232;2023-02-28T01:04:45;3.33;;;1.87;;
20173;SDS011;10246;50.620;7.232;2023-02-28T01:07:12;2.90;;;2.00;;
20173;SDS011;10246;50.620;7.232;2023-02-28T01:09:39;2.77;;;1.93;;
20173;SDS011;10246;50.620;7.232;2023-02-28T01:12:06;3.03;;;2.07;;
20173;SDS011;10246;50.620;7.232;2023-02-28T01:14:33;3.47;;;2.13;;
20173;SDS011;10246;50.620;7.232;2023-02-28T01:17:02;2.83;;;2.30;;
20173;SDS011;10246;50.620;7.232;2023-02-28T01:19:30;5.80;;;2.20;;
20173;SDS011;10246;50.620;7.232;2023-02-28T01:21:59;2.43;;;1.80;;
20173;SDS011;10246;50.620;7.232;2023-02-28T01:24:26;2.37;;;1.90;;
20173;SDS011;10246;50.620;7.232;2023-02-28T01:26:53;4.33;;;2.07;;
20173;SDS011;10246;50.620;7.232;2023-02-28T01:29:20;3.10;;;1.93;;
20173;SDS011;10246;50.620;7.232;2023-02-28T01:31:47;2.57;;;1.90;;
20173;SDS011;10246;50.620;7.232;2023-02-28T01:34:15;2.73;;;2.17;;
20173;SDS011;10246;50.620;7.232;2023-02-28T01:36:44;3.07;;;2.00;;
20173;SDS011;10246;50.620;7.232;2023-02-28T01:39:11;2.10;;;1.90;;
20173;SDS011;10246;50.620;7.232;2023-02-28T01:41:38;3.77;;;2.00;;
20173;SDS011;10246;50.620;7.232;2023-02-28T01:44:06;3.43;;;1.97;;
20173;SDS011;10246;50.620;7.232;2023-02-28T01:46:48;3.33;;;2.03;;
20173;SDS011;10246;50.620;7.232;2023-02-28T01:49:16;2.27;;;1.83;;
20173;SDS011;10246;50.620;7.232;2023-02-28T01:51:45;2.10;;;1.90;;
20173;SDS011;10246;50.620;7.232;2023-02-28T01:54:16;3.63;;;2.17;;
20173;SDS011;10246;50.620;7.232;2023-02-28T01:56:47;4.00;;;2.10;;
20173;SDS011;10246;50.620;7.232;2023-02-28T01:59:21;3.20;;;2.23;;
20173;SDS011;10246;50.620;7.232;2023-02-28T02:01:50;3.07;;;2.27;;
20173;SDS011;10246;50.620;7.232;2023-02-28T02:04:18;2.30;;;2.03;;
20173;SDS011;10246;50.620;7.232;2023-02-28T02:06:47;3.20;;;2.10;;
20173;SDS011;10246;50.620;7.232;2023-02-28T02:09:14;2.30;;;2.10;;
20173;SDS011;10246;50.620;7.232;2023-02-28T02:11:42;4.27;;;2.37;;
20173;SDS011;10246;50.620;7.232;2023-02-28T02:14:18;2.63;;;1.93;;
20173;SDS011;10246;50.620;7.232;2023-02-28T02:17:15;3.30;;;2.00;;
20173;SDS011;10246;50.620;7.232;2023-02-28T02:20:01;3.23;;;2.43;;
20173;SDS011;10246;50.620;7.232;2023-02-28T02:23:07;3.00;;;2.00;;
20173;SDS011;10246;50.620;7.232;2023-02-28T02:25:50;3.97;;;2.30;;
20173;SDS011;10246;50.620;7.232;2023-02-28T02:28:26;3.53;;;2.07;;
20173;SDS011;10246;50.620;7.232;2023-02-28T02:34:22;2.17;;;1.97;;
20173;SDS011;10246;50.620;7.232;2023-02-28T02:37:02;2.83;;;1.90;;
20173;SDS011;10246;50.620;7.232;2023-02-28T02:39:39;3.93;;;2.33;;
20173;SDS011;10246;50.620;7.232;2023-02-28T02:42:13;3.40;;;2.30;;
20173;SDS011;10246;50.620;7.232;2023-02-28T02:44:47;4.10;;;2.37;;
20173;SDS011;10246;50.620;7.232;2023-02-28T02:47:19;5.53;;;2.13;;
20173;SDS011;10246;50.620;7.232;2023-02-28T02:49:50;3.10;;;2.17;;
20173;SDS011;10246;50.620;7.232;2023-02-28T02:52:18;3.77;;;2.00;;
20173;SDS011;10246;50.620;7.232;2023-02-28T02:54:48;2.33;;;2.07;;
20173;SDS011;10246;50.620;7.232;2023-02-28T02:57:22;3.37;;;2.17;;
20173;SDS011;10246;50.620;7.232;2023-02-28T02:59:51;2.33;;;2.13;;
20173;SDS011;10246;50.620;7.232;2023-02-28T03:02:21;4.33;;;2.10;;
20173;SDS011;10246;50.620;7.232;2023-02-28T03:04:52;2.50;;;2.10;;
20173;SDS011;10246;50.620;7.232;2023-02-28T03:07:25;2.47;;;2.03;;
20173;SDS011;10246;50.620;7.232;2023-02-28T03:09:52;2.57;;;2.03;;
20173;SDS011;10246;50.620;7.232;2023-02-28T03:12:21;3.90;;;2.10;;
20173;SDS011;10246;50.620;7.232;2023-02-28T03:14:55;2.43;;;1.87;;
20173;SDS011;10246;50.620;7.232;2023-02-28T03:17:34;3.53;;;1.87;;
20173;SDS011;10246;50.620;7.232;2023-02-28T03:20:24;5.43;;;1.93;;
20173;SDS011;10246;50.620;7.232;2023-02-28T03:23:02;3.07;;;2.00;;
20173;SDS011;10246;50.620;7.232;2023-02-28T03:25:37;2.73;;;2.37;;
20173;SDS011;10246;50.620;7.232;2023-02-28T03:28:14;2.63;;;2.13;;
20173;SDS011;10246;50.620;7.232;2023-02-28T03:30:47;3.37;;;2.37;;
20173;SDS011;10246;50.620;7.232;2023-02-28T03:33:19;3.27;;;2.20;;
20173;SDS011;10246;50.620;7.232;2023-02-28T03:35:51;2.60;;;2.33;;
20173;SDS011;10246;50.620;7.232;2023-02-28T03:38:22;3.10;;;2.10;;
20173;SDS011;10246;50.620;7.232;2023-02-28T03:40:55;4.77;;;2.20;;
20173;SDS011;10246;50.620;7.232;2023-02-28T03:43:27;3.87;;;2.30;;
20173;SDS011;10246;50.620;7.232;2023-02-28T03:45:56;4.17;;;2.43;;
20173;SDS011;10246;50.620;7.232;2023-02-28T03:48:29;3.93;;;2.40;;
20173;SDS011;10246;50.620;7.232;2023-02-28T03:51:03;2.87;;;2.13;;
20173;SDS011;10246;50.620;7.232;2023-02-28T03:53:36;3.20;;;2.20;;
20173;SDS011;10246;50.620;7.232;2023-02-28T03:56:06;3.30;;;2.70;;
20173;SDS011;10246;50.620;7.232;2023-02-28T03:58:37;4.17;;;2.13;;
20173;SDS011;10246;50.620;7.232;2023-02-28T04:01:09;3.70;;;2.60;;
20173;SDS011;10246;50.620;7.232;2023-02-28T04:03:39;4.13;;;2.80;;
20173;SDS011;10246;50.620;7.232;2023-02-28T04:06:07;2.47;;;2.20;;
20173;SDS011;10246;50.620;7.232;2023-02-28T04:08:41;3.40;;;2.30;;
20173;SDS011;10246;50.620;7.232;2023-02-28T04:11:16;3.33;;;2.43;;
20173;SDS011;10246;50.620;7.232;2023-02-28T04:13:48;3.20;;;2.47;;
20173;SDS011;10246;50.620;7.232;2023-02-28T04:16:15;3.43;;;2.47;;
20173;SDS011;10246;50.620;7.232;2023-02-28T04:18:42;3.40;;;2.50;;
20173;SDS011;10246;50.620;7.232;2023-02-28T04:21:10;3.17;;;2.20;;
20173;SDS011;10246;50.620;7.232;2023-02-28T04:23:38;2.90;;;2.20;;
20173;SDS011;10246;50.620;7.232;2023-02-28T04:26:05;3.90;;;2.30;;
20173;SDS011;10246;50.620;7.232;2023-02-28T04:28:32;4.90;;;2.27;;
20173;SDS011;10246;50.620;7.232;2023-02-28T04:31:00;4.10;;;2.70;;
20173;SDS011;10246;50.620;7.232;2023-02-28T04:33:28;3.07;;;2.33;;
20173;SDS011;10246;50.620;7.232;2023-02-28T04:36:00;3.23;;;2.50;;
20173;SDS011;10246;50.620;7.232;2023-02-28T04:38:30;3.80;;;2.50;;
20173;SDS011;10246;50.620;7.232;2023-02-28T04:40:59;3.43;;;2.60;;
20173;SDS011;10246;50.620;7.232;2023-02-28T04:43:27;3.07;;;2.20;;
20173;SDS011;10246;50.620;7.232;2023-02-28T04:45:55;4.00;;;2.90;;
20173;SDS011;10246;50.620;7.232;2023-02-28T04:48:24;4.33;;;2.70;;
20173;SDS011;10246;50.620;7.232;2023-02-28T04:50:51;3.17;;;2.50;;
20173;SDS011;10246;50.620;7.232;2023-02-28T04:53:18;2.93;;;2.57;;
20173;SDS011;10246;50.620;7.232;2023-02-28T04:55:46;3.30;;;2.67;;
20173;SDS011;10246;50.620;7.232;2023-02-28T04:58:13;5.77;;;3.80;;
20173;SDS011;10246;50.620;7.232;2023-02-28T05:00:41;19.33;;;10.60;;
20173;SDS011;10246;50.620;7.232;2023-02-28T05:03:07;13.53;;;7.90;;
20173;SDS011;10246;50.620;7.232;2023-02-28T05:05:34;9.57;;;7.03;;
20173;SDS011;10246;50.620;7.232;2023-02-28T05:08:01;8.00;;;6.50;;
20173;SDS011;10246;50.620;7.232;2023-02-28T05:10:28;5.03;;;4.00;;
20173;SDS011;10246;50.620;7.232;2023-02-28T05:12:56;4.93;;;3.20;;
20173;SDS011;10246;50.620;7.232;2023-02-28T05:15:23;3.73;;;2.70;;
20173;SDS011;10246;50.620;7.232;2023-02-28T05:17:50;4.13;;;2.80;;
20173;SDS011;10246;50.620;7.232;2023-02-28T05:20:16;2.93;;;2.63;;
20173;SDS011;10246;50.620;7.232;2023-02-28T05:22:43;3.93;;;3.03;;
20173;SDS011;10246;50.620;7.232;2023-02-28T05:25:10;3.00;;;2.50;;
20173;SDS011;10246;50.620;7.232;2023-02-28T05:27:40;4.03;;;2.80;;
20173;SDS011;10246;50.620;7.232;2023-02-28T05:30:08;3.37;;;2.50;;
20173;SDS011;10246;50.620;7.232;2023-02-28T05:32:36;4.13;;;2.83;;
20173;SDS011;10246;50.620;7.232;2023-02-28T05:35:03;3.03;;;2.67;;
20173;SDS011;10246;50.620;7.232;2023-02-28T05:37:31;4.47;;;2.63;;
20173;SDS011;10246;50.620;7.232;2023-02-28T05:39:57;3.27;;;2.60;;
20173;SDS011;10246;50.620;7.232;2023-02-28T05:42:24;3.40;;;2.63;;
20173;SDS011;10246;50.620;7.232;2023-02-28T05:44:51;3.47;;;2.80;;
20173;SDS011;10246;50.620;7.232;2023-02-28T05:47:19;2.90;;;2.40;;
20173;SDS011;10246;50.620;7.232;2023-02-28T05:49:46;3.43;;;2.67;;
20173;SDS011;10246;50.620;7.232;2023-02-28T05:52:13;4.00;;;2.90;;
20173;SDS011;10246;50.620;7.232;2023-02-28T05:54:40;3.63;;;2.40;;
20173;SDS011;10246;50.620;7.232;2023-02-28T05:57:06;3.37;;;2.90;;
20173;SDS011;10246;50.620;7.232;2023-02-28T05:59:33;2.60;;;2.40;;
20173;SDS011;10246;50.620;7.232;2023-02-28T06:02:04;2.80;;;2.50;;
20173;SDS011;10246;50.620;7.232;2023-02-28T06:04:33;2.90;;;2.53;;
20173;SDS011;10246;50.620;7.232;2023-02-28T06:06:59;3.40;;;2.60;;
20173;SDS011;10246;50.620;7.232;2023-02-28T06:09:26;3.57;;;2.63;;
20173;SDS011;10246;50.620;7.232;2023-02-28T06:11:54;5.53;;;3.13;;
20173;SDS011;10246;50.620;7.232;2023-02-28T06:14:20;4.40;;;2.90;;
20173;SDS011;10246;50.620;7.232;2023-02-28T06:16:47;3.20;;;2.90;;
20173;SDS011;10246;50.620;7.232;2023-02-28T06:19:14;4.23;;;2.60;;
20173;SDS011;10246;50.620;7.232;2023-02-28T06:21:42;2.60;;;2.40;;
20173;SDS011;10246;50.620;7.232;2023-02-28T06:24:10;3.50;;;2.70;;
20173;SDS011;10246;50.620;7.232;2023-02-28T06:26:37;4.73;;;2.40;;
20173;SDS011;10246;50.620;7.232;2023-02-28T06:29:04;2.57;;;2.10;;
20173;SDS011;10246;50.620;7.232;2023-02-28T06:31:32;3.07;;;2.67;;
20173;SDS011;10246;50.620;7.232;2023-02-28T06:33:59;3.83;;;2.30;;
20173;SDS011;10246;50.620;7.232;2023-02-28T06:36:26;2.60;;;2.20;;
20173;SDS011;10246;50.620;7.232;2023-02-28T06:38:54;3.00;;;2.10;;
20173;SDS011;10246;50.620;7.232;2023-02-28T06:41:21;4.30;;;2.77;;
20173;SDS011;10246;50.620;7.232;2023-02-28T06:43:49;4.07;;;2.80;;
20173;SDS011;10246;50.620;7.232;2023-02-28T06:46:15;4.57;;;3.00;;
20173;SDS011;10246;50.620;7.232;2023-02-28T06:48:43;4.10;;;2.70;;
20173;SDS011;10246;50.620;7.232;2023-02-28T06:51:10;4.87;;;3.57;;
20173;SDS011;10246;50.620;7.232;2023-02-28T06:53:39;7.23;;;3.97;;
20173;SDS011;10246;50.620;7.232;2023-02-28T06:56:08;7.17;;;4.40;;
20173;SDS011;10246;50.620;7.232;2023-02-28T06:58:36;6.50;;;4.10;;
20173;SDS011;10246;50.620;7.232;2023-02-28T07:01:04;5.33;;;3.57;;
20173;SDS011;10246;50.620;7.232;2023-02-28T07:03:31;6.83;;;4.07;;
20173;SDS011;10246;50.620;7.232;2023-02-28T07:05:59;5.43;;;3.20;;
20173;SDS011;10246;50.620;7.232;2023-02-28T07:08:26;4.60;;;2.90;;
20173;SDS011;10246;50.620;7.232;2023-02-28T07:10:53;3.17;;;2.60;;
20173;SDS011;10246;50.620;7.232;2023-02-28T07:13:21;3.50;;;2.70;;
20173;SDS011;10246;50.620;7.232;2023-02-28T07:15:55;3.27;;;2.37;;
20173;SDS011;10246;50.620;7.232;2023-02-28T07:18:23;3.90;;;2.47;;
20173;SDS011;10246;50.620;7.232;2023-02-28T07:20:50;4.10;;;3.00;;
20173;SDS011;10246;50.620;7.232;2023-02-28T07:23:17;3.60;;;2.60;;
20173;SDS011;10246;50.620;7.232;2023-02-28T07:25:44;4.23;;;2.83;;
20173;SDS011;10246;50.620;7.232;2023-02-28T07:28:11;2.90;;;2.60;;
20173;SDS011;10246;50.620;7.232;2023-02-28T07:30:40;3.40;;;2.53;;
20173;SDS011;10246;50.620;7.232;2023-02-28T07:33:07;4.53;;;3.10;;
20173;SDS011;10246;50.620;7.232;2023-02-28T07:35:33;6.10;;;2.77;;
20173;SDS011;10246;50.620;7.232;2023-02-28T07:38:00;4.37;;;2.90;;
20173;SDS011;10246;50.620;7.232;2023-02-28T07:40:27;3.33;;;2.60;;
20173;SDS011;10246;50.620;7.232;2023-02-28T07:42:54;4.13;;;2.77;;
20173;SDS011;10246;50.620;7.232;2023-02-28T07:45:21;3.47;;;2.53;;
20173;SDS011;10246;50.620;7.232;2023-02-28T07:47:49;3.87;;;2.77;;
20173;SDS011;10246;50.620;7.232;2023-02-28T07:50:16;3.67;;;3.17;;
20173;SDS011;10246;50.620;7.232;2023-02-28T07:52:43;4.53;;;3.03;;
20173;SDS011;10246;50.620;7.232;2023-02-28T07:55:10;3.17;;;2.70;;
20173;SDS011;10246;50.620;7.232;2023-02-28T07:57:36;3.70;;;3.10;;
20173;SDS011;10246;50.620;7.232;2023-02-28T08:00:04;3.27;;;2.93;;
20173;SDS011;10246;50.620;7.232;2023-02-28T08:02:34;5.07;;;3.13;;
20173;SDS011;10246;50.620;7.232;2023-02-28T08:05:03;4.33;;;3.27;;
20173;SDS011;10246;50.620;7.232;2023-02-28T08:07:30;4.57;;;3.00;;
20173;SDS011;10246;50.620;7.232;2023-02-28T08:09:58;4.80;;;2.87;;
20173;SDS011;10246;50.620;7.232;2023-02-28T08:12:25;3.07;;;2.47;;
20173;SDS011;10246;50.620;7.232;2023-02-28T08:14:51;4.10;;;3.17;;
20173;SDS011;10246;50.620;7.232;2023-02-28T08:17:18;3.93;;;2.60;;
20173;SDS011;10246;50.620;7.232;2023-02-28T08:19:45;4.93;;;2.77;;
20173;SDS011;10246;50.620;7.232;2023-02-28T08:22:13;3.10;;;2.50;;
20173;SDS011;10246;50.620;7.232;2023-02-28T08:24:40;5.03;;;2.57;;
20173;SDS011;10246;50.620;7.232;2023-02-28T08:27:08;4.43;;;2.90;;
20173;SDS011;10246;50.620;7.232;2023-02-28T08:29:36;2.60;;;2.40;;
20173;SDS011;10246;50.620;7.232;2023-02-28T08:32:03;2.73;;;2.17;;
20173;SDS011;10246;50.620;7.232;2023-02-28T08:34:31;3.97;;;2.63;;
20173;SDS011;10246;50.620;7.232;2023-02-28T08:36:57;4.50;;;3.10;;
20173;SDS011;10246;50.620;7.232;2023-02-28T08:39:25;4.30;;;2.67;;
20173;SDS011;10246;50.620;7.232;2023-02-28T08:41:52;3.63;;;2.80;;
20173;SDS011;10246;50.620;7.232;2023-02-28T08:44:19;4.87;;;3.03;;
20173;SDS011;10246;50.620;7.232;2023-02-28T08:46:46;5.33;;;3.07;;
20173;SDS011;10246;50.620;7.232;2023-02-28T08:49:12;3.97;;;2.70;;
20173;SDS011;10246;50.620;7.232;2023-02-28T08:51:39;2.90;;;2.30;;
20173;SDS011;10246;50.620;7.232;2023-02-28T08:54:06;3.50;;;2.60;;
20173;SDS011;10246;50.620;7.232;2023-02-28T08:56:35;3.70;;;2.67;;
20173;SDS011;10246;50.620;7.232;2023-02-28T08:59:02;2.50;;;2.30;;
20173;SDS011;10246;50.620;7.232;2023-02-28T09:01:29;3.57;;;2.50;;
20173;SDS011;10246;50.620;7.232;2023-02-28T09:03:57;3.23;;;2.13;;
20173;SDS011;10246;50.620;7.232;2023-02-28T09:06:25;3.77;;;2.70;;
20173;SDS011;10246;50.620;7.232;2023-02-28T09:08:52;3.63;;;2.37;;
20173;SDS011;10246;50.620;7.232;2023-02-28T09:11:23;5.00;;;2.60;;
20173;SDS011;10246;50.620;7.232;2023-02-28T09:13:51;2.40;;;2.10;;
20173;SDS011;10246;50.620;7.232;2023-02-28T09:16:18;2.53;;;2.10;;
20173;SDS011;10246;50.620;7.232;2023-02-28T09:18:45;3.00;;;2.03;;
20173;SDS011;10246;50.620;7.232;2023-02-28T09:21:12;3.37;;;2.33;;
20173;SDS011;10246;50.620;7.232;2023-02-28T09:23:41;2.93;;;2.30;;
20173;SDS011;10246;50.620;7.232;2023-02-28T09:26:08;3.50;;;2.43;;
20173;SDS011;10246;50.620;7.232;2023-02-28T09:28:39;3.20;;;2.30;;
20173;SDS011;10246;50.620;7.232;2023-02-28T09:31:10;3.23;;;2.23;;
20173;SDS011;10246;50.620;7.232;2023-02-28T09:33:38;3.30;;;2.20;;
20173;SDS011;10246;50.620;7.232;2023-02-28T09:36:06;2.73;;;2.27;;
20173;SDS011;10246;50.620;7.232;2023-02-28T09:38:33;3.33;;;2.77;;
20173;SDS011;10246;50.620;7.232;2023-02-28T09:41:01;2.93;;;2.40;;
20173;SDS011;10246;50.620;7.232;2023-02-28T09:43:35;4.77;;;2.90;;
20173;SDS011;10246;50.620;7.232;2023-02-28T09:46:08;6.57;;;3.30;;
20173;SDS011;10246;50.620;7.232;2023-02-28T09:48:44;3.93;;;2.90;;
20173;SDS011;10246;50.620;7.232;2023-02-28T09:51:16;3.40;;;2.40;;
20173;SDS011;10246;50.620;7.232;2023-02-28T09:53:54;3.80;;;2.70;;
20173;SDS011;10246;50.620;7.232;2023-02-28T09:56:21;4.33;;;2.47;;
20173;SDS011;10246;50.620;7.232;2023-02-28T09:58:55;3.40;;;2.23;;
20173;SDS011;10246;50.620;7.232;2023-02-28T10:01:27;3.20;;;2.07;;
20173;SDS011;10246;50.620;7.232;2023-02-28T10:04:02;2.87;;;2.23;;
20173;SDS011;10246;50.620;7.232;2023-02-28T10:06:36;3.63;;;2.60;;
20173;SDS011;10246;50.620;7.232;2023-02-28T10:09:10;4.80;;;2.67;;
20173;SDS011;10246;50.620;7.232;2023-02-28T10:11:41;3.40;;;2.37;;
20173;SDS011;10246;50.620;7.232;2023-02-28T10:14:11;3.83;;;2.67;;
20173;SDS011;10246;50.620;7.232;2023-02-28T10:16:43;6.27;;;2.90;;
20173;SDS011;10246;50.620;7.232;2023-02-28T10:19:18;4.37;;;2.60;;
20173;SDS011;10246;50.620;7.232;2023-02-28T10:21:51;4.47;;;2.37;;
20173;SDS011;10246;50.620;7.232;2023-02-28T10:24:23;2.57;;;2.07;;
20173;SDS011;10246;50.620;7.232;2023-02-28T10:26:56;2.33;;;1.93;;
20173;SDS011;10246;50.620;7.232;2023-02-28T10:29:27;3.30;;;2.40;;
20173;SDS011;10246;50.620;7.232;2023-02-28T10:32:01;3.10;;;1.83;;
20173;SDS011;10246;50.620;7.232;2023-02-28T10:34:29;3.40;;;2.10;;
20173;SDS011;10246;50.620;7.232;2023-02-28T10:36:56;3.30;;;2.20;;
20173;SDS011;10246;50.620;7.232;2023-02-28T10:39:36;4.50;;;2.40;;
20173;SDS011;10246;50.620;7.232;2023-02-28T10:42:04;4.03;;;2.10;;
20173;SDS011;10246;50.620;7.232;2023-02-28T10:44:44;3.03;;;2.10;;
20173;SDS011;10246;50.620;7.232;2023-02-28T10:47:14;2.53;;;1.67;;
20173;SDS011;10246;50.620;7.232;2023-02-28T10:49:46;2.77;;;2.20;;
20173;SDS011;10246;50.620;7.232;2023-02-28T10:52:14;2.20;;;1.90;;
20173;SDS011;10246;50.620;7.232;2023-02-28T10:55:13;4.37;;;1.90;;
20173;SDS011;10246;50.620;7.232;2023-02-28T10:57:42;2.60;;;1.90;;
20173;SDS011;10246;50.620;7.232;2023-02-28T11:00:13;4.87;;;1.97;;
20173;SDS011;10246;50.620;7.232;2023-02-28T11:02:43;3.97;;;2.00;;
20173;SDS011;10246;50.620;7.232;2023-02-28T11:05:24;2.93;;;1.90;;
20173;SDS011;10246;50.620;7.232;2023-02-28T11:07:53;2.60;;;1.67;;
20173;SDS011;10246;50.620;7.232;2023-02-28T11:10:23;2.40;;;2.00;;
20173;SDS011;10246;50.620;7.232;2023-02-28T11:12:55;2.73;;;1.80;;
20173;SDS011;10246;50.620;7.232;2023-02-28T11:15:28;2.90;;;2.00;;
20173;SDS011;10246;50.620;7.232;2023-02-28T11:18:19;2.17;;;1.83;;
20173;SDS011;10246;50.620;7.232;2023-02-28T11:20:57;2.50;;;1.83;;
20173;SDS011;10246;50.620;7.232;2023-02-28T11:23:33;2.53;;;2.00;;
20173;SDS011;10246;50.620;7.232;2023-02-28T11:26:09;3.17;;;2.20;;
20173;SDS011;10246;50.620;7.232;2023-02-28T11:28:43;4.10;;;2.20;;
20173;SDS011;10246;50.620;7.232;2023-02-28T11:31:17;1.83;;;1.73;;
20173;SDS011;10246;50.620;7.232;2023-02-28T11:33:49;5.53;;;2.37;;
20173;SDS011;10246;50.620;7.232;2023-02-28T11:36:18;1.97;;;1.77;;
20173;SDS011;10246;50.620;7.232;2023-02-28T11:38:49;2.20;;;1.80;;
20173;SDS011;10246;50.620;7.232;2023-02-28T11:41:20;3.77;;;2.00;;
20173;SDS011;10246;50.620;7.232;2023-02-28T11:44:16;2.50;;;2.10;;
20173;SDS011;10246;50.620;7.232;2023-02-28T11:46:54;3.17;;;1.90;;
20173;SDS011;10246;50.620;7.232;2023-02-28T11:49:37;2.70;;;1.87;;
20173;SDS011;10246;50.620;7.232;2023-02-28T11:52:18;3.70;;;1.70;;
20173;SDS011;10246;50.620;7.232;2023-02-28T11:54:59;2.80;;;1.77;;
20173;SDS011;10246;50.620;7.232;2023-02-28T11:57:40;3.70;;;1.73;;
20173;SDS011;10246;50.620;7.232;2023-02-28T12:00:25;3.50;;;2.10;;
20173;SDS011;10246;50.620;7.232;2023-02-28T12:03:07;3.23;;;2.00;;
20173;SDS011;10246;50.620;7.232;2023-02-28T12:05:45;3.13;;;2.20;;
20173;SDS011;10246;50.620;7.232;2023-02-28T12:08:21;2.93;;;2.30;;
20173;SDS011;10246;50.620;7.232;2023-02-28T12:11:01;3.57;;;2.13;;
20173;SDS011;10246;50.620;7.232;2023-02-28T12:13:36;3.30;;;2.30;;
20173;SDS011;10246;50.620;7.232;2023-02-28T12:16:18;2.77;;;1.90;;
20173;SDS011;10246;50.620;7.232;2023-02-28T12:19:04;3.67;;;2.10;;
20173;SDS011;10246;50.620;7.232;2023-02-28T12:21:44;2.30;;;1.87;;
20173;SDS011;10246;50.620;7.232;2023-02-28T12:24:33;2.87;;;2.07;;
20173;SDS011;10246;50.620;7.232;2023-02-28T12:27:10;3.93;;;1.93;;
20173;SDS011;10246;50.620;7.232;2023-02-28T12:29:43;5.97;;;2.63;;
20173;SDS011;10246;50.620;7.232;2023-02-28T12:32:14;3.00;;;2.27;;
20173;SDS011;10246;50.620;7.232;2023-02-28T12:34:46;3.27;;;2.17;;
20173;SDS011;10246;50.620;7.232;2023-02-28T12:37:17;3.10;;;2.17;;
20173;SDS011;10246;50.620;7.232;2023-02-28T12:39:49;3.70;;;2.40;;
20173;SDS011;10246;50.620;7.232;2023-02-28T12:42:23;3.30;;;2.20;;
20173;SDS011;10246;50.620;7.232;2023-02-28T12:44:54;2.93;;;2.10;;
20173;SDS011;10246;50.620;7.232;2023-02-28T12:47:25;4.23;;;2.57;;
20173;SDS011;10246;50.620;7.232;2023-02-28T12:49:53;2.70;;;1.83;;
20173;SDS011;10246;50.620;7.232;2023-02-28T12:52:25;2.40;;;2.20;;
20173;SDS011;10246;50.620;7.232;2023-02-28T12:55:02;2.53;;;2.03;;
20173;SDS011;10246;50.620;7.232;2023-02-28T12:57:34;3.23;;;2.50;;
20173;SDS011;10246;50.620;7.232;2023-02-28T13:00:10;3.20;;;2.07;;
20173;SDS011;10246;50.620;7.232;2023-02-28T13:02:47;3.00;;;2.30;;
20173;SDS011;10246;50.620;7.232;2023-02-28T13:08:31;2.60;;;2.03;;
20173;SDS011;10246;50.620;7.232;2023-02-28T13:11:28;2.80;;;2.20;;
20173;SDS011;10246;50.620;7.232;2023-02-28T13:13:57;2.83;;;2.30;;
20173;SDS011;10246;50.620;7.232;2023-02-28T13:16:25;2.40;;;2.20;;
20173;SDS011;10246;50.620;7.232;2023-02-28T13:18:52;2.87;;;2.30;;
20173;SDS011;10246;50.620;7.232;2023-02-28T13:21:41;3.50;;;2.50;;
20173;SDS011;10246;50.620;7.232;2023-02-28T13:24:11;3.57;;;2.30;;
20173;SDS011;10246;50.620;7.232;2023-02-28T13:27:10;3.40;;;2.40;;
20173;SDS011;10246;50.620;7.232;2023-02-28T13:29:58;3.23;;;2.57;;
20173;SDS011;10246;50.620;7.232;2023-02-28T13:38:21;2.50;;;2.10;;
20173;SDS011;10246;50.620;7.232;2023-02-28T13:40:52;4.27;;;2.67;;
20173;SDS011;10246;50.620;7.232;2023-02-28T13:43:19;4.47;;;2.60;;
20173;SDS011;10246;50.620;7.232;2023-02-28T13:48:34;3.00;;;2.30;;
20173;SDS011;10246;50.620;7.232;2023-02-28T13:53:56;3.73;;;2.53;;
20173;SDS011;10246;50.620;7.232;2023-02-28T13:56:34;3.10;;;2.53;;
20173;SDS011;10246;50.620;7.232;2023-02-28T13:59:14;2.60;;;2.10;;
20173;SDS011;10246;50.620;7.232;2023-02-28T14:01:54;3.37;;;2.40;;
20173;SDS011;10246;50.620;7.232;2023-02-28T14:04:44;3.47;;;2.60;;
20173;SDS011;10246;50.620;7.232;2023-02-28T14:07:17;3.10;;;2.50;;
20173;SDS011;10246;50.620;7.232;2023-02-28T14:09:49;3.97;;;2.67;;
20173;SDS011;10246;50.620;7.232;2023-02-28T14:18:25;3.97;;;2.50;;
20173;SDS011;10246;50.620;7.232;2023-02-28T14:20:55;2.60;;;2.40;;
20173;SDS011;10246;50.620;7.232;2023-02-28T14:23:31;3.17;;;2.43;;
20173;SDS011;10246;50.620;7.232;2023-02-28T14:26:18;3.90;;;2.83;;
20173;SDS011;10246;50.620;7.232;2023-02-28T14:28:59;3.90;;;2.70;;
20173;SDS011;10246;50.620;7.232;2023-02-28T14:31:40;4.47;;;2.47;;
20173;SDS011;10246;50.620;7.232;2023-02-28T14:34:16;3.77;;;2.70;;
20173;SDS011;10246;50.620;7.232;2023-02-28T14:36:52;3.73;;;2.70;;
20173;SDS011;10246;50.620;7.232;2023-02-28T14:39:20;3.10;;;2.60;;
20173;SDS011;10246;50.620;7.232;2023-02-28T14:41:50;3.70;;;2.60;;
20173;SDS011;10246;50.620;7.232;2023-02-28T14:44:19;3.37;;;2.60;;
20173;SDS011;10246;50.620;7.232;2023-02-28T14:46:48;3.43;;;2.33;;
20173;SDS011;10246;50.620;7.232;2023-02-28T14:49:18;3.50;;;2.90;;
20173;SDS011;10246;50.620;7.232;2023-02-28T14:51:47;2.70;;;2.47;;
20173;SDS011;10246;50.620;7.232;2023-02-28T14:54:16;4.23;;;2.60;;
20173;SDS011;10246;50.620;7.232;2023-02-28T14:56:49;5.63;;;3.30;;
20173;SDS011;10246;50.620;7.232;2023-02-28T14:59:24;6.97;;;3.10;;
20173;SDS011;10246;50.620;7.232;2023-02-28T15:02:14;6.70;;;3.97;;
20173;SDS011;10246;50.620;7.232;2023-02-28T15:04:52;4.33;;;3.40;;
20173;SDS011;10246;50.620;7.232;2023-02-28T15:07:21;5.33;;;3.60;;
20173;SDS011;10246;50.620;7.232;2023-02-28T15:10:06;5.33;;;3.60;;
20173;SDS011;10246;50.620;7.232;2023-02-28T15:12:37;5.97;;;3.50;;
20173;SDS011;10246;50.620;7.232;2023-02-28T15:15:13;10.23;;;3.50;;
20173;SDS011;10246;50.620;7.232;2023-02-28T15:17:41;4.43;;;3.30;;
20173;SDS011;10246;50.620;7.232;2023-02-28T15:20:12;5.70;;;3.87;;
20173;SDS011;10246;50.620;7.232;2023-02-28T15:22:41;5.57;;;3.20;;
20173;SDS011;10246;50.620;7.232;2023-02-28T15:25:09;4.23;;;2.93;;
20173;SDS011;10246;50.620;7.232;2023-02-28T15:27:41;4.83;;;3.43;;
20173;SDS011;10246;50.620;7.232;2023-02-28T15:30:15;4.07;;;2.80;;
20173;SDS011;10246;50.620;7.232;2023-02-28T15:32:44;3.60;;;3.07;;
20173;SDS011;10246;50.620;7.232;2023-02-28T15:35:18;5.03;;;3.30;;